Time;durP1;ratioP1;P1;durP2;ratioP2;P2;SDS_P1;SDS_P2;PMS_P1;PMS_P2;Temp;Humidity;BMP_temperature;BMP_pressure;BME280_temperature;BME280_humidity;BME280_pressure;Samples;Min_cycle;Max_cycle;Signal;HPM_P1;HPM_P2
2023/09/17 00:01:06;;;;;;;2.25;2.15;;;21.40;99.90;;;21.79;86.15;101308.38;5043561;28;20045;-68
2023/09/17 00:03:35;;;;;;;2.15;2.05;;;21.40;99.90;;;21.75;85.28;101314.84;5047603;28;20099;-69
2023/09/17 00:06:04;;;;;;;2.30;2.20;;;21.40;99.90;;;21.78;85.51;101312.00;5037233;28;20049;-69
2023/09/17 00:08:32;;;;;;;2.30;2.20;;;21.40;99.90;;;21.79;85.00;101302.09;5046524;28;20099;-68
2023/09/17 00:11:03;;;;;;;2.55;2.45;;;21.40;99.90;;;21.83;84.66;101303.75;5044267;28;20445;-69
2023/09/17 00:13:32;;;;;;;2.67;2.55;;;21.40;99.90;;;21.88;83.87;101301.72;5038432;28;20045;-69
2023/09/17 00:16:00;;;;;;;5.38;3.45;;;21.50;99.90;;;21.89;83.40;101308.88;5068076;28;20057;-69
2023/09/17 00:18:29;;;;;;;2.63;2.53;;;21.50;99.90;;;21.89;83.24;101298.09;5046176;28;20497;-69
2023/09/17 00:20:57;;;;;;;2.40;2.30;;;21.50;99.90;;;21.84;83.03;101286.63;5044900;28;20037;-69
2023/09/17 00:23:26;;;;;;;3.63;3.40;;;21.50;99.90;;;21.77;82.57;101288.72;5037375;28;20056;-68
2023/09/17 00:25:55;;;;;;;2.30;2.20;;;21.40;99.90;;;21.79;81.56;101285.94;5049801;28;20067;-69
2023/09/17 00:28:25;;;;;;;2.88;2.72;;;21.40;99.90;;;21.78;81.48;101290.44;5040442;28;20056;-69
2023/09/17 00:30:54;;;;;;;4.00;3.80;;;21.40;99.90;;;21.76;80.79;101281.56;5048702;28;20057;-69
2023/09/17 00:33:22;;;;;;;2.50;2.40;;;21.40;99.90;;;21.70;80.61;101287.19;5048302;28;20041;-68
2023/09/17 00:35:51;;;;;;;2.70;2.60;;;21.30;99.90;;;21.64;80.23;101286.63;5052846;28;20061;-69
2023/09/17 00:38:19;;;;;;;3.22;3.05;;;21.30;99.90;;;21.52;79.70;101278.09;5045099;28;20068;-69
2023/09/17 00:40:50;;;;;;;2.30;2.20;;;21.20;99.90;;;21.52;79.39;101280.78;5045784;28;20037;-68
2023/09/17 00:43:18;;;;;;;2.53;2.42;;;21.20;99.90;;;21.50;79.38;101274.59;5036519;28;20484;-69
2023/09/17 00:45:48;;;;;;;3.45;3.25;;;21.20;99.90;;;21.50;79.35;101273.75;5048451;28;20071;-69
2023/09/17 00:48:17;;;;;;;3.78;3.58;;;21.20;99.90;;;21.50;78.79;101274.59;5057620;28;20049;-69
2023/09/17 00:50:47;;;;;;;4.73;3.70;;;21.20;99.90;;;21.48;77.87;101268.44;5052874;28;20041;-69
2023/09/17 00:53:16;;;;;;;2.90;2.80;;;21.20;99.90;;;21.47;78.02;101274.75;5051422;28;20521;-69
2023/09/17 00:55:44;;;;;;;2.40;2.30;;;21.10;99.90;;;21.54;78.44;101272.69;5048452;28;20042;-68
2023/09/17 00:58:13;;;;;;;2.75;2.65;;;21.20;99.90;;;21.54;78.34;101270.00;5042488;28;20513;-69
2023/09/17 01:00:42;;;;;;;3.17;3.08;;;21.20;99.90;;;21.48;78.25;101271.13;5039045;28;20052;-69
2023/09/17 01:03:12;;;;;;;2.40;2.30;;;21.20;99.90;;;21.46;78.03;101267.63;5049139;28;20120;-68
2023/09/17 01:05:44;;;;;;;2.55;2.45;;;21.10;99.90;;;21.49;78.22;101261.22;5038930;28;20043;-69
2023/09/17 01:08:13;;;;;;;2.50;2.40;;;21.10;99.90;;;21.50;77.67;101265.66;5041409;28;20129;-69
2023/09/17 01:10:42;;;;;;;2.58;2.47;;;21.20;99.90;;;21.51;77.65;101262.91;5045968;28;20483;-69
2023/09/17 01:13:12;;;;;;;3.17;2.97;;;21.10;99.90;;;21.55;77.14;101267.22;5049106;28;20133;-69
2023/09/17 01:15:40;;;;;;;2.60;2.50;;;21.20;99.90;;;21.47;76.96;101241.56;5039772;28;20051;-69
2023/09/17 01:18:12;;;;;;;2.38;2.28;;;21.20;99.90;;;21.59;76.41;101257.19;5056297;28;20292;-69
2023/09/17 01:20:50;;;;;;;2.17;2.08;;;21.20;99.90;;;21.51;76.30;101235.09;5048677;28;20449;-69
2023/09/17 01:23:27;;;;;;;2.30;2.20;;;21.30;99.90;;;21.67;75.83;101251.47;5037883;28;20464;-68
2023/09/17 01:25:58;;;;;;;2.35;2.25;;;21.30;99.90;;;21.64;75.34;101252.47;5057226;28;20053;-69
2023/09/17 01:28:28;;;;;;;;;;;21.30;99.90;;;21.60;75.07;101250.88;5048269;28;20060;-68
2023/09/17 01:30:57;;;;;;;2.30;2.20;;;21.30;99.90;;;21.43;74.81;101254.28;5036039;28;19978;-68
2023/09/17 01:33:25;;;;;;;2.40;2.30;;;21.10;99.90;;;21.50;74.93;101242.28;5045126;28;20049;-69
2023/09/17 01:36:01;;;;;;;2.10;2.00;;;21.20;99.90;;;21.58;74.87;101239.28;5044366;28;20088;-69
2023/09/17 01:38:35;;;;;;;2.45;2.35;;;21.20;99.90;;;21.61;74.71;101235.56;5036355;28;20124;-69
2023/09/17 01:41:05;;;;;;;2.20;2.10;;;21.30;99.90;;;21.58;74.22;101235.72;5047173;28;20482;-69
2023/09/17 01:43:38;;;;;;;3.03;2.83;;;21.20;99.90;;;21.60;73.82;101240.09;5042551;28;20072;-69
2023/09/17 01:46:08;;;;;;;2.72;2.63;;;21.30;99.90;;;21.53;73.62;101234.09;5037621;28;20040;-68
2023/09/17 01:48:38;;;;;;;2.47;2.37;;;21.20;99.90;;;21.59;73.63;101235.66;5048478;28;20053;-69
2023/09/17 01:51:08;;;;;;;2.60;2.50;;;21.30;99.90;;;21.58;73.50;101234.75;5039667;28;20494;-68
2023/09/17 01:53:37;;;;;;;2.80;2.70;;;21.20;99.90;;;21.51;73.44;101235.97;5040995;28;20057;-69
2023/09/17 01:56:06;;;;;;;2.40;2.30;;;21.20;99.90;;;21.53;73.69;101233.22;5048197;28;20441;-68
2023/09/17 01:58:36;;;;;;;2.47;2.38;;;21.20;99.90;;;21.51;73.84;101230.59;5050937;28;20486;-69
2023/09/17 02:01:05;;;;;;;3.58;3.28;;;21.20;99.90;;;21.48;73.53;101222.66;5047844;28;20072;-69
2023/09/17 02:03:33;;;;;;;2.38;2.28;;;21.20;99.90;;;21.54;73.54;101226.91;5045364;28;20056;-68
2023/09/17 02:06:04;;;;;;;3.88;2.70;;;21.20;99.90;;;21.49;73.47;101224.41;5039826;28;20050;-69
2023/09/17 02:08:34;;;;;;;2.70;2.60;;;21.20;99.90;;;21.44;73.11;101223.75;5051141;28;20110;-69
2023/09/17 02:11:04;;;;;;;3.65;3.45;;;21.10;99.90;;;21.40;72.37;101224.81;5059792;28;20059;-69
2023/09/17 02:13:35;;;;;;;2.50;2.40;;;21.10;99.90;;;21.37;72.82;101229.44;5070806;28;20047;-68
2023/09/17 02:16:03;;;;;;;2.20;2.10;;;21.00;99.90;;;21.42;72.17;101231.00;5038847;28;20049;-68
2023/09/17 02:18:31;;;;;;;2.97;2.78;;;21.10;99.90;;;21.28;71.77;101232.53;5050939;28;20403;-69
2023/09/17 02:21:00;;;;;;;2.30;2.20;;;21.00;99.90;;;21.34;71.99;101224.19;5044099;28;20052;-68
2023/09/17 02:23:28;;;;;;;3.28;3.08;;;21.00;99.90;;;21.35;71.84;101225.97;5051153;28;20128;-68
2023/09/17 02:25:57;;;;;;;2.40;2.30;;;21.00;99.90;;;21.36;71.75;101225.88;5050444;28;20045;-68
2023/09/17 02:28:26;;;;;;;2.17;2.08;;;21.00;99.90;;;21.42;71.97;101225.63;5041620;28;20056;-68
2023/09/17 02:30:59;;;;;;;2.28;2.17;;;21.00;99.90;;;21.41;72.06;101220.28;5044920;28;20511;-68
2023/09/17 02:33:27;;;;;;;2.53;2.42;;;21.00;99.90;;;21.42;71.72;101224.75;5050048;28;20082;-68
2023/09/17 02:35:56;;;;;;;2.33;2.22;;;21.10;99.90;;;21.46;71.65;101221.84;5039062;28;20055;-69
2023/09/17 02:38:26;;;;;;;2.72;2.63;;;21.10;99.90;;;21.53;71.89;101227.81;5050866;28;20099;-69
2023/09/17 02:40:54;;;;;;;2.30;2.20;;;21.20;99.90;;;21.56;71.51;101227.72;5047251;28;20398;-68
2023/09/17 02:43:23;;;;;;;2.65;2.55;;;21.20;99.90;;;21.55;71.44;101217.88;5039588;28;20046;-69
2023/09/17 02:45:53;;;;;;;2.10;2.00;;;21.20;99.90;;;21.60;71.04;101214.97;5051369;28;20128;-69
2023/09/17 02:48:23;;;;;;;2.40;2.30;;;21.30;99.90;;;21.46;70.77;101194.94;5042967;28;20079;-69
2023/09/17 02:50:52;;;;;;;3.15;2.95;;;21.30;99.90;;;21.43;70.13;101224.66;5058488;28;20103;-69
2023/09/17 02:53:20;;;;;;;2.10;2.00;;;21.20;99.90;;;21.46;70.74;101212.91;5050346;28;20049;-69
2023/09/17 02:55:49;;;;;;;3.78;3.47;;;21.10;99.90;;;21.36;70.43;101220.50;5050983;28;20041;-69
2023/09/17 02:58:18;;;;;;;2.72;2.63;;;21.10;99.90;;;21.40;70.91;101229.31;5058986;28;20106;-69
2023/09/17 03:00:47;;;;;;;2.10;2.00;;;21.00;99.90;;;21.44;70.71;101217.47;5055101;28;20430;-69
2023/09/17 03:03:15;;;;;;;2.40;2.30;;;21.10;99.90;;;21.46;70.48;101218.28;5038755;28;20124;-69
2023/09/17 03:05:47;;;;;;;2.58;2.47;;;21.10;99.90;;;21.48;70.66;101211.91;5050115;28;20061;-69
2023/09/17 03:08:16;;;;;;;2.28;2.17;;;21.10;99.90;;;21.56;70.72;101208.88;5044803;28;20059;-69
2023/09/17 03:10:58;;;;;;;2.40;2.30;;;21.20;99.90;;;21.54;70.71;101206.22;5056052;28;20049;-69
2023/09/17 03:13:28;;;;;;;2.85;2.75;;;21.20;99.90;;;21.58;70.59;101206.09;5066027;28;20076;-69
2023/09/17 03:15:57;;;;;;;2.38;2.28;;;21.20;99.90;;;21.58;70.16;101209.69;5040281;28;20103;-69
2023/09/17 03:18:27;;;;;;;2.30;2.20;;;21.30;99.90;;;21.56;70.21;101204.34;5069741;28;20041;-69
2023/09/17 03:20:57;;;;;;;2.63;2.53;;;21.30;99.90;;;21.58;70.38;101200.72;5049729;28;20057;-69
2023/09/17 03:23:25;;;;;;;2.53;2.43;;;21.20;99.90;;;21.51;70.10;101192.03;5050270;28;20049;-69
2023/09/17 03:25:54;;;;;;;2.50;2.40;;;21.20;99.90;;;21.59;69.88;101206.03;5042622;28;20390;-69
2023/09/17 03:28:23;;;;;;;2.50;2.40;;;21.20;99.90;;;21.65;69.73;101194.97;5050016;28;20679;-68
2023/09/17 03:30:53;;;;;;;2.58;2.47;;;21.30;99.90;;;21.59;69.34;101197.94;5049152;28;20045;-69
2023/09/17 03:33:21;;;;;;;2.10;2.00;;;21.30;99.90;;;21.60;69.13;101201.53;5038182;28;20053;-69
2023/09/17 03:35:51;;;;;;;2.30;2.20;;;21.30;99.90;;;21.56;68.88;101206.19;5069738;28;20049;-69
2023/09/17 03:38:21;;;;;;;4.37;3.97;;;21.20;99.90;;;21.57;69.10;101199.84;5053128;28;20049;-69
2023/09/17 03:40:49;;;;;;;2.20;2.10;;;21.20;99.90;;;21.47;69.17;101209.25;5053095;28;20094;-69
2023/09/17 03:43:18;;;;;;;2.20;2.10;;;21.20;99.90;;;21.44;68.94;101199.50;5055522;28;20044;-69
2023/09/17 03:45:47;;;;;;;2.30;2.20;;;21.20;99.90;;;21.50;68.68;101201.91;5053035;28;20849;-69
2023/09/17 03:48:17;;;;;;;2.50;2.40;;;21.20;99.90;;;21.52;68.95;101209.94;5040050;28;20057;-69
2023/09/17 03:50:46;;;;;;;2.85;2.70;;;21.20;99.90;;;21.38;68.93;101201.59;5050236;28;20076;-69
2023/09/17 03:53:15;;;;;;;2.50;2.40;;;21.10;99.90;;;21.18;69.16;101172.84;5040319;28;20090;-69
2023/09/17 03:55:46;;;;;;;2.40;2.30;;;21.10;99.90;;;21.32;69.35;101215.31;5049551;28;20100;-69
2023/09/17 03:58:15;;;;;;;2.80;2.65;;;21.00;99.90;;;21.19;69.58;101209.59;5048073;28;20106;-69
2023/09/17 04:00:44;;;;;;;5.97;3.47;;;20.90;99.90;;;20.95;69.77;101210.56;5053046;28;20185;-69
2023/09/17 04:03:18;;;;;;;2.72;2.60;;;20.70;99.90;;;20.98;70.24;101209.56;5061829;28;20463;-69
2023/09/17 04:05:48;;;;;;;2.42;2.33;;;20.70;99.90;;;21.16;70.23;101208.81;5046324;28;20049;-69
2023/09/17 04:08:17;;;;;;;3.15;2.95;;;20.80;99.90;;;20.55;70.74;101197.91;5052917;28;20144;-69
2023/09/17 04:10:49;;;;;;;2.22;2.13;;;20.40;99.90;;;20.86;71.29;101200.22;5049245;28;20052;-69
2023/09/17 04:13:19;;;;;;;3.00;2.88;;;20.50;99.90;;;21.02;71.01;101203.16;5041712;28;20385;-69
2023/09/17 04:15:48;;;;;;;2.60;2.50;;;20.60;99.90;;;20.98;70.61;101198.81;5048491;28;20055;-69
2023/09/17 04:18:16;;;;;;;2.20;2.10;;;20.70;99.90;;;21.01;70.52;101198.72;5047912;28;20045;-68
2023/09/17 04:20:45;;;;;;;2.40;2.30;;;20.70;99.90;;;21.03;70.50;101197.72;5038669;28;20055;-69
2023/09/17 04:23:14;;;;;;;2.30;2.20;;;20.70;99.90;;;21.10;70.46;101190.28;5048275;28;20046;-69
2023/09/17 04:25:42;;;;;;;2.20;2.10;;;20.80;99.90;;;21.25;70.27;101203.06;5047003;28;20367;-69
2023/09/17 04:28:12;;;;;;;2.65;2.55;;;20.90;99.90;;;21.15;69.92;101199.91;5049990;28;20049;-69
2023/09/17 04:30:40;;;;;;;2.77;2.67;;;20.90;99.90;;;21.09;69.75;101202.84;5046926;28;20048;-69
2023/09/17 04:33:09;;;;;;;2.30;2.20;;;20.80;99.90;;;21.20;70.21;101207.75;5042715;28;20429;-69
2023/09/17 04:35:37;;;;;;;3.33;3.13;;;20.90;99.90;;;21.13;69.77;101206.28;5068453;28;20048;-69
2023/09/17 04:38:07;;;;;;;3.10;3.00;;;20.90;99.90;;;21.14;70.37;101200.81;5051128;28;20063;-69
2023/09/17 04:40:36;;;;;;;2.53;2.42;;;20.80;99.90;;;21.16;69.88;101204.31;5048519;28;20045;-69
2023/09/17 04:43:08;;;;;;;2.50;2.40;;;20.80;99.90;;;21.24;70.23;101201.31;5043660;28;20139;-69
2023/09/17 04:45:39;;;;;;;2.40;2.30;;;20.90;99.90;;;21.24;69.87;101201.31;5037471;28;20052;-69
2023/09/17 04:48:20;;;;;;;2.45;2.35;;;20.90;99.90;;;21.23;70.22;101197.75;5050949;28;20060;-69
2023/09/17 04:50:49;;;;;;;2.42;2.33;;;20.90;99.90;;;21.20;69.99;101195.19;5033257;28;20125;-69
2023/09/17 04:53:17;;;;;;;3.53;3.33;;;20.90;99.90;;;21.29;70.08;101196.59;5045634;28;20049;-69
2023/09/17 04:55:48;;;;;;;2.83;2.60;;;20.90;99.90;;;21.02;70.14;101192.41;5050872;28;20073;-69
2023/09/17 04:58:20;;;;;;;2.47;2.38;;;20.80;99.90;;;21.20;70.51;101194.28;5048182;28;20056;-69
2023/09/17 05:00:51;;;;;;;2.30;2.20;;;20.80;99.90;;;21.28;70.54;101187.66;5043980;28;20406;-69
2023/09/17 05:03:20;;;;;;;2.40;2.30;;;20.90;99.90;;;21.29;70.38;101189.38;5052759;28;20057;-69
2023/09/17 05:05:49;;;;;;;2.60;2.50;;;20.90;99.90;;;21.29;69.98;101186.69;5047894;28;20042;-69
2023/09/17 05:08:19;;;;;;;24.52;3.38;;;21.00;99.90;;;21.35;70.16;101188.28;5039489;28;20049;-69
2023/09/17 05:10:48;;;;;;;2.60;2.50;;;21.00;99.90;;;21.41;70.19;101201.44;5068064;28;20049;-69
2023/09/17 05:13:20;;;;;;;2.50;2.40;;;21.10;99.90;;;21.29;70.37;101196.59;5036600;28;20041;-69
2023/09/17 05:15:51;;;;;;;2.63;2.53;;;20.90;99.90;;;21.35;70.38;101199.03;5048015;28;20415;-69
2023/09/17 05:18:19;;;;;;;2.22;2.13;;;21.00;99.90;;;21.37;70.47;101197.13;5041415;28;20463;-69
2023/09/17 05:20:53;;;;;;;2.45;2.35;;;21.00;99.90;;;21.36;70.45;101195.41;5047555;28;20041;-69
2023/09/17 05:23:23;;;;;;;2.55;2.45;;;21.00;99.90;;;21.36;70.71;101198.09;5047405;28;20110;-69
2023/09/17 05:25:58;;;;;;;2.67;2.58;;;21.00;99.90;;;21.39;70.73;101195.25;5054753;28;20076;-69
2023/09/17 05:28:28;;;;;;;2.88;2.78;;;21.00;99.90;;;21.38;70.69;101198.91;5051361;28;20052;-69
2023/09/17 05:30:58;;;;;;;2.50;2.40;;;21.00;99.90;;;21.38;70.92;101193.50;5052045;28;20500;-69
2023/09/17 05:33:27;;;;;;;2.60;2.50;;;21.00;99.90;;;21.38;70.91;101199.78;5035355;28;20060;-69
2023/09/17 05:35:57;;;;;;;2.60;2.50;;;21.00;99.90;;;21.36;70.99;101203.47;5048081;28;20049;-69
2023/09/17 05:38:28;;;;;;;2.67;2.58;;;21.00;99.90;;;21.32;71.27;101199.16;5062810;28;20044;-69
2023/09/17 05:40:57;;;;;;;2.95;2.85;;;21.00;99.90;;;21.30;71.75;101201.03;5052315;28;20079;-69
2023/09/17 05:43:26;;;;;;;2.40;2.30;;;21.00;99.90;;;21.28;71.64;101193.03;5051729;28;20072;-69
2023/09/17 05:45:56;;;;;;;2.50;2.40;;;20.90;99.90;;;21.21;71.52;101190.69;5044292;28;20052;-69
2023/09/17 05:48:35;;;;;;;2.55;2.45;;;20.90;99.90;;;21.24;71.51;101193.22;5051934;28;20127;-68
2023/09/17 05:51:04;;;;;;;2.65;2.55;;;20.90;99.90;;;21.31;71.65;101186.66;5051462;28;20561;-69
2023/09/17 05:53:35;;;;;;;2.55;2.45;;;20.90;99.90;;;21.37;71.89;101194.44;5059113;28;20037;-69
2023/09/17 05:56:07;;;;;;;2.50;2.40;;;21.00;99.90;;;21.33;71.32;101187.47;5071482;28;20048;-69
2023/09/17 05:58:36;;;;;;;2.30;2.20;;;21.00;99.90;;;21.35;71.46;101191.81;5055053;28;20072;-69
2023/09/17 06:01:07;;;;;;;2.90;2.80;;;21.00;99.90;;;21.38;71.10;101193.50;5051724;28;20046;-70
2023/09/17 06:03:37;;;;;;;2.42;2.33;;;21.00;99.90;;;21.32;70.96;101191.97;5044993;28;20116;-69
2023/09/17 06:06:05;;;;;;;2.70;2.60;;;21.00;99.90;;;21.34;71.05;101191.88;5051424;28;20050;-69
2023/09/17 06:08:34;;;;;;;2.47;2.38;;;21.00;99.90;;;21.27;70.88;101185.88;5051091;28;20071;-69
2023/09/17 06:11:02;;;;;;;2.40;2.30;;;21.00;99.90;;;21.26;71.02;101188.66;5039913;28;20135;-68
2023/09/17 06:13:31;;;;;;;2.83;2.72;;;20.90;99.90;;;21.21;71.11;101186.19;5071093;28;20052;-69
2023/09/17 06:15:59;;;;;;;2.60;2.50;;;20.90;99.90;;;21.27;70.92;101185.03;5051262;28;20077;-69
2023/09/17 06:18:32;;;;;;;2.35;2.25;;;21.00;99.90;;;21.27;71.21;101185.88;5050680;28;20047;-69
2023/09/17 06:21:03;;;;;;;2.40;2.30;;;20.90;99.90;;;21.19;71.00;101181.78;5056813;28;20041;-69
2023/09/17 06:23:31;;;;;;;2.90;2.80;;;20.90;99.90;;;21.17;71.09;101173.78;5055317;28;20056;-69
2023/09/17 06:26:00;;;;;;;3.00;2.90;;;20.80;99.90;;;21.20;70.98;101179.03;5050590;28;20398;-69
2023/09/17 06:28:29;;;;;;;2.72;2.63;;;20.80;99.90;;;21.25;70.86;101174.31;5050417;28;20044;-69
2023/09/17 06:30:57;;;;;;;3.53;3.33;;;20.90;99.90;;;21.21;71.20;101169.16;5042013;28;20106;-69
2023/09/17 06:33:26;;;;;;;2.40;2.30;;;20.90;99.90;;;21.29;70.92;101162.47;5050596;28;20046;-69
2023/09/17 06:35:54;;;;;;;2.47;2.38;;;20.90;99.90;;;21.36;70.62;101165.78;5049269;28;20494;-69
2023/09/17 06:38:24;;;;;;;2.80;2.70;;;21.00;99.90;;;21.35;70.51;101172.97;5053775;28;20397;-69
2023/09/17 06:40:53;;;;;;;2.85;2.75;;;21.00;99.90;;;21.32;70.27;101167.75;5050634;28;20104;-69
2023/09/17 06:43:22;;;;;;;2.45;2.35;;;21.00;99.90;;;21.35;70.30;101166.75;5046789;28;20458;-69
2023/09/17 06:45:51;;;;;;;2.45;2.35;;;21.00;99.90;;;21.38;70.20;101170.16;5039230;28;20046;-69
2023/09/17 06:48:20;;;;;;;2.50;2.40;;;21.10;99.90;;;21.39;70.04;101171.03;5038713;28;20041;-68
2023/09/17 06:50:48;;;;;;;2.50;2.40;;;21.00;99.90;;;21.38;70.22;101177.34;5049866;28;20056;-69
2023/09/17 06:53:17;;;;;;;2.40;2.30;;;21.10;99.90;;;21.42;70.15;101174.47;5047507;28;20045;-69
2023/09/17 06:55:46;;;;;;;2.63;2.53;;;21.10;99.90;;;21.48;70.17;101167.94;5054965;28;20063;-69
2023/09/17 06:58:16;;;;;;;16.27;5.18;;;21.20;99.90;;;21.36;70.22;101177.44;5050829;28;20367;-69
2023/09/17 07:00:45;;;;;;;2.57;2.47;;;21.10;99.90;;;21.14;70.35;101173.03;5043919;28;20083;-69
2023/09/17 07:03:13;;;;;;;2.40;2.30;;;20.90;99.90;;;21.33;70.57;101179.41;5042264;28;20041;-69
2023/09/17 07:05:41;;;;;;;2.50;2.40;;;21.00;99.90;;;21.38;70.59;101186.31;5051046;28;20048;-69
2023/09/17 07:08:10;;;;;;;3.88;3.58;;;21.00;99.90;;;21.27;70.55;101188.59;5039426;28;20041;-69
2023/09/17 07:10:38;;;;;;;7.78;5.63;;;21.00;99.90;;;20.69;71.80;101170.44;5045935;28;20456;-69
2023/09/17 07:13:08;;;;;;;2.85;2.75;;;20.70;99.90;;;20.63;73.87;101202.97;5047667;28;20041;-69
2023/09/17 07:15:36;;;;;;;2.70;2.60;;;20.30;99.90;;;20.02;75.00;101094.31;5038300;28;20045;-69
2023/09/17 07:18:07;;;;;;;11.50;3.95;;;20.30;99.90;;;20.31;77.25;101209.59;5049540;28;20235;-69
2023/09/17 07:20:36;;;;;;;2.50;2.40;;;20.10;99.90;;;20.30;78.54;101210.56;5044238;28;20056;-69
2023/09/17 07:23:05;;;;;;;2.95;2.85;;;19.90;99.90;;;20.39;78.94;101209.28;5039805;28;20038;-69
2023/09/17 07:25:33;;;;;;;2.75;2.60;;;20.00;99.90;;;20.36;79.68;101215.66;5050350;28;20517;-69
2023/09/17 07:28:07;;;;;;;8.07;5.85;;;20.00;99.90;;;19.89;81.78;101208.50;5039948;28;20037;-69
2023/09/17 07:30:37;;;;;;;2.72;2.63;;;19.70;99.90;;;20.00;83.08;101205.41;5049207;28;20061;-68
2023/09/17 07:33:06;;;;;;;4.10;3.90;;;19.70;99.90;;;19.99;84.17;101209.94;5049232;28;20044;-69
2023/09/17 07:35:35;;;;;;;2.40;2.30;;;19.70;99.90;;;20.08;84.72;101204.19;5037625;28;20132;-69
2023/09/17 07:38:03;;;;;;;2.35;2.25;;;19.70;99.90;;;20.04;85.53;101210.63;5046961;28;20060;-69
2023/09/17 07:40:33;;;;;;;2.92;2.83;;;19.70;99.90;;;20.03;86.20;101190.09;5045703;28;20123;-69
2023/09/17 07:43:04;;;;;;;4.47;4.13;;;19.70;99.90;;;20.16;86.32;101196.72;5038108;28;20104;-69
2023/09/17 07:45:33;;;;;;;3.22;3.05;;;19.80;99.90;;;20.23;86.91;101189.31;5050767;28;20497;-69
2023/09/17 07:48:04;;;;;;;2.78;2.67;;;19.90;99.90;;;20.13;86.93;101185.22;5052637;28;20076;-69
2023/09/17 07:50:33;;;;;;;3.30;3.10;;;19.80;99.90;;;20.19;87.34;101179.66;5053991;28;20052;-69
2023/09/17 07:53:02;;;;;;;2.70;2.60;;;19.80;99.90;;;20.12;87.52;101184.34;5037517;28;20046;-69
2023/09/17 07:55:30;;;;;;;3.35;3.15;;;19.90;99.90;;;20.20;87.58;101182.28;5049484;28;20049;-69
2023/09/17 07:57:59;;;;;;;3.28;3.13;;;19.90;99.90;;;20.04;87.76;101185.56;5043042;28;20079;-69
2023/09/17 08:00:27;;;;;;;2.70;2.60;;;19.70;99.90;;;20.01;88.24;101186.59;5040687;28;20041;-69
2023/09/17 08:02:55;;;;;;;3.30;3.10;;;19.70;99.90;;;19.97;88.92;101181.38;5049625;28;20068;-69
2023/09/17 08:05:26;;;;;;;3.50;3.30;;;19.60;99.90;;;19.98;89.38;101173.25;5039628;28;20071;-69
2023/09/17 08:07:54;;;;;;;3.67;3.47;;;19.70;99.90;;;19.95;89.82;101180.56;5044152;28;20037;-68
2023/09/17 08:10:23;;;;;;;2.83;2.72;;;19.60;99.90;;;19.82;90.63;101165.84;5047521;28;20063;-68
2023/09/17 08:12:51;;;;;;;3.25;3.05;;;19.50;99.90;;;19.78;90.93;101170.47;5037476;28;20047;-69
2023/09/17 08:15:20;;;;;;;9.05;8.38;;;19.50;99.90;;;19.58;92.04;101171.19;5047345;28;20041;-69
2023/09/17 08:17:48;;;;;;;3.08;2.97;;;19.30;99.90;;;19.65;92.53;101177.19;5043585;28;20044;-68
2023/09/17 08:20:17;;;;;;;2.80;2.70;;;19.30;99.90;;;19.71;92.75;101190.38;5039011;28;20064;-69
2023/09/17 08:22:46;;;;;;;3.47;3.38;;;19.30;99.90;;;19.81;92.95;101181.06;5049592;28;20037;-69
2023/09/17 08:25:15;;;;;;;2.97;2.83;;;19.50;99.90;;;19.65;92.91;101156.59;5040085;28;20138;-69
2023/09/17 08:27:44;;;;;;;3.92;3.70;;;19.50;99.90;;;19.68;92.62;101166.34;5041859;28;20843;-68
2023/09/17 08:30:13;;;;;;;3.50;3.30;;;19.40;99.90;;;19.62;92.71;101171.94;5046326;28;20067;-68
2023/09/17 08:32:43;;;;;;;2.95;2.85;;;19.30;99.90;;;19.63;92.88;101169.19;5064818;28;20053;-68
2023/09/17 08:35:14;;;;;;;4.35;4.15;;;19.30;99.90;;;19.55;92.99;101168.59;5040558;28;20059;-68
2023/09/17 08:37:43;;;;;;;2.53;2.42;;;19.30;99.90;;;19.39;93.24;101131.66;5041236;28;20045;-69
2023/09/17 08:40:17;;;;;;;2.80;2.70;;;19.30;99.90;;;19.68;93.24;101185.16;5049163;28;20526;-69
2023/09/17 08:42:48;;;;;;;2.70;2.60;;;19.40;99.90;;;19.57;93.12;101195.38;5038410;28;20045;-69
2023/09/17 08:45:18;;;;;;;;;;;19.30;99.90;;;19.55;93.35;101191.91;5044181;28;20056;-69
2023/09/17 08:47:47;;;;;;;3.97;3.70;;;19.30;99.90;;;19.56;93.81;101196.31;5046864;28;19921;-69
2023/09/17 08:50:15;;;;;;;4.82;3.45;;;19.30;99.90;;;19.47;93.67;101202.03;5036214;28;20123;-69
2023/09/17 08:52:49;;;;;;;2.92;2.83;;;19.20;99.90;;;19.35;93.78;101184.56;5047550;28;20084;-69
2023/09/17 08:55:19;;;;;;;16.35;3.25;;;19.20;99.90;;;19.46;94.69;101208.31;5043688;28;20048;-69
2023/09/17 08:57:54;;;;;;;3.13;2.92;;;19.10;99.90;;;19.56;94.57;101209.75;5038470;28;20057;-69
2023/09/17 09:00:24;;;;;;;2.80;2.70;;;19.30;99.90;;;19.19;95.65;101210.13;5048906;28;20051;-69
2023/09/17 09:02:57;;;;;;;2.85;2.75;;;19.00;99.90;;;19.04;95.88;101158.81;5040712;28;20052;-69
2023/09/17 09:05:28;;;;;;;3.10;3.00;;;19.00;99.90;;;19.47;95.68;101202.88;5048146;28;20050;-69
2023/09/17 09:07:57;;;;;;;4.07;3.78;;;19.20;99.90;;;18.97;95.20;101112.56;5049296;28;20045;-69
2023/09/17 09:10:27;;;;;;;3.75;3.50;;;19.20;99.90;;;19.40;95.75;101184.38;5037995;28;20118;-69
2023/09/17 09:12:59;;;;;;;3.53;3.33;;;19.10;99.90;;;19.53;95.91;101177.66;5042994;28;20077;-69
2023/09/17 09:15:28;;;;;;;3.72;3.53;;;19.20;99.90;;;19.61;95.95;101186.28;5047277;28;20049;-69
2023/09/17 09:17:56;;;;;;;2.95;2.85;;;19.30;99.90;;;19.45;95.65;101163.63;5036531;28;20042;-69
2023/09/17 09:20:26;;;;;;;3.00;2.90;;;19.30;99.90;;;19.52;95.25;101190.19;5048071;28;20482;-69
2023/09/17 09:22:54;;;;;;;5.00;4.70;;;19.30;99.90;;;19.56;95.24;101188.28;5043410;28;20075;-68
2023/09/17 09:25:29;;;;;;;3.30;3.10;;;19.30;99.90;;;19.50;95.77;101193.84;5048040;28;20140;-68
2023/09/17 09:28:00;;;;;;;4.95;4.47;;;19.20;99.90;;;19.59;95.53;101198.88;5048313;28;20056;-69
2023/09/17 09:30:29;;;;;;;2.83;2.72;;;19.30;99.90;;;19.69;95.29;101206.56;5038724;28;20148;-69
2023/09/17 09:32:58;;;;;;;3.30;3.08;;;19.40;99.90;;;19.82;95.30;101203.44;5051840;28;20196;-69
2023/09/17 09:35:26;;;;;;;2.70;2.60;;;19.50;99.90;;;19.82;94.87;101207.00;5047818;28;20076;-69
2023/09/17 09:37:55;;;;;;;3.25;3.15;;;19.50;99.90;;;19.67;94.67;101203.06;5048115;28;20051;-69
2023/09/17 09:40:25;;;;;;;3.70;3.38;;;19.50;99.90;;;19.80;95.28;101188.25;5040966;28;20125;-69
2023/09/17 09:42:55;;;;;;;3.40;3.20;;;19.50;99.90;;;19.95;95.16;101176.06;5039631;28;20046;-69
2023/09/17 09:45:24;;;;;;;3.30;3.20;;;19.60;99.90;;;20.06;94.72;101168.47;5048645;28;20110;-69
2023/09/17 09:47:54;;;;;;;2.80;2.70;;;19.70;99.90;;;20.12;94.49;101161.97;5047579;28;20046;-69
2023/09/17 09:50:23;;;;;;;3.30;3.13;;;19.80;99.90;;;19.99;93.49;101161.59;5041656;28;20048;-69
2023/09/17 09:52:52;;;;;;;3.47;3.20;;;19.80;99.90;;;19.93;94.09;101161.81;5038277;28;20120;-69
2023/09/17 09:55:24;;;;;;;2.97;2.83;;;19.60;99.90;;;20.07;93.94;101151.44;5048942;28;20044;-69
2023/09/17 09:57:53;;;;;;;3.03;2.92;;;19.80;99.90;;;20.13;93.85;101148.47;5038785;28;20041;-69
2023/09/17 10:00:28;;;;;;;2.83;2.72;;;19.80;99.90;;;20.24;93.50;101151.66;5041675;28;20107;-69
2023/09/17 10:02:58;;;;;;;4.05;3.70;;;19.90;99.90;;;20.26;92.80;101131.00;5048123;28;20073;-69
2023/09/17 10:05:33;;;;;;;3.75;3.47;;;20.00;99.90;;;20.37;92.10;101147.56;5048466;28;20045;-69
2023/09/17 10:08:04;;;;;;;2.60;2.50;;;20.00;99.90;;;20.03;92.86;101144.44;5041077;28;20045;-69
2023/09/17 10:10:33;;;;;;;3.67;3.47;;;19.80;99.90;;;20.07;93.35;101143.38;5038686;28;20042;-69
2023/09/17 10:13:04;;;;;;;3.55;3.33;;;19.80;99.90;;;19.85;94.02;101146.91;5048300;28;20547;-68
2023/09/17 10:15:36;;;;;;;2.72;2.63;;;19.60;99.90;;;19.98;93.35;101142.81;5053117;28;20139;-69
2023/09/17 10:18:07;;;;;;;2.88;2.78;;;19.70;99.90;;;19.96;93.36;101140.19;5051828;28;20045;-69
2023/09/17 10:20:36;;;;;;;6.93;5.88;;;19.70;99.90;;;19.43;94.88;101149.41;5036958;28;20042;-69
2023/09/17 10:23:06;;;;;;;4.53;4.07;;;19.20;99.90;;;19.00;98.16;101138.41;5048069;28;20045;-69